Rainbow Quest — ZDJZ7 — position and weather

sailwx.info

Track history (hours):
 
Tides and Currents Weather Stations Pressure Air Temp Water Temp Dewpoint Dewpoint Depression Visibility Wind Speed Wind Dir Waves Ship Positions

Rainbow Quest

Last reported at 2017-Oct-30 19:56 UTC. Time now 2017-Dec-12 12:23 UTC.
Position N 25°03' W 017°36'.
Warning: this ship's position is 42 days out of date.

Length 180 m; draft 10.5 m.

Type: Cargo ship. MMSI: 236111696.

Date/timePositionNaut miles runAvg speedWind from/ knotsBaromVisibWave heightAir tempDewpointWater temp
2017-Oct-30 19:56N 25°03' W 017°36'20112.1
2017-Oct-30 03:20N 27°38' W 015°13'412.7
2017-Oct-30 03:00N 27°42' W 015°12'612.6
2017-Oct-30 02:30N 27°48' W 015°09'612.4
2017-Oct-30 02:00N 27°54' W 015°07'612.3
2017-Oct-30 01:30N 27°60' W 015°05'4 9.1
2017-Oct-30 01:00N 28°04' W 015°06'510.8
2017-Oct-30 00:30N 28°05' W 015°12'511.0
2017-Oct-30 00:00N 28°06' W 015°18'2 4.2
2017-Oct-29 23:30N 28°07' W 015°20'3 5.2
2017-Oct-29 23:00N 28°08' W 015°17'3 6.9
2017-Oct-29 22:30N 28°09' W 015°13'5 9.5
2017-Oct-29 22:00N 28°10' W 015°08'511.0
2017-Oct-29 21:30N 28°11' W 015°02'5 9.9
2017-Oct-29 21:00N 28°14' W 014°58'611.2
2017-Oct-29 20:30N 28°20' W 014°55'611.7
2017-Oct-29 20:00N 28°25' W 014°54'611.9
2017-Oct-29 19:30N 28°31' W 014°52'611.8
2017-Oct-29 18:58N 28°37' W 014°51'511.8
2017-Oct-29 18:30N 28°42' W 014°49'611.8
2017-Oct-29 18:00N 28°48' W 014°48'612.0
2017-Oct-29 17:30N 28°54' W 014°46'612.1
2017-Oct-29 17:00N 28°60' W 014°44'612.2
2017-Oct-29 16:30N 29°06' W 014°43'612.1
2017-Oct-29 16:00N 29°12' W 014°41'611.9
2017-Oct-29 15:30N 29°17' W 014°40'611.4
2017-Oct-29 14:58N 29°23' W 014°38'511.4
2017-Oct-29 14:30N 29°29' W 014°36'611.4
2017-Oct-29 14:00N 29°34' W 014°35'611.4
2017-Oct-29 13:30N 29°40' W 014°33'711.4
2017-Oct-29 12:56N 29°46' W 014°32'611.3
2017-Oct-29 12:26N 29°52' W 014°30'511.2
2017-Oct-29 12:00N 29°56' W 014°29'611.0
2017-Oct-29 11:30N 30°02' W 014°27'1311.0
2017-Oct-29 10:17N 30°15' W 014°24'410.9
2017-Oct-29 09:54N 30°19' W 014°23'511.0
2017-Oct-29 09:26N 30°24' W 014°21'511.2
2017-Oct-29 08:59N 30°29' W 014°20'611.1
2017-Oct-29 08:26N 30°35' W 014°18'811.5
2017-Oct-29 07:43N 30°43' W 014°16'611.6
2017-Oct-29 07:10N 30°49' W 014°15'1611.6
2017-Oct-29 05:46N 31°05' W 014°10'311.5
2017-Oct-29 05:30N 31°08' W 014°09'711.5
2017-Oct-29 04:55N 31°14' W 014°07'511.5
2017-Oct-29 04:30N 31°19' W 014°06'21111.7
2017-Oct-28 10:26N 34°44' W 013°08'1311.6
2017-Oct-28 09:19N 34°57' W 013°04'2311.8
2017-Oct-28 07:20N 35°19' W 012°57'511.6
2017-Oct-28 06:55N 35°24' W 012°56'511.5
2017-Oct-28 06:30N 35°29' W 012°55'611.5
2017-Oct-28 06:00N 35°34' W 012°53'811.5
2017-Oct-28 05:17N 35°42' W 012°51'311.6
2017-Oct-28 05:00N 35°45' W 012°50'10511.3
2017-Oct-27 19:48N 37°27' W 012°20'311.4
2017-Oct-27 19:30N 37°30' W 012°19'611.5
2017-Oct-27 19:00N 37°36' W 012°17'611.4
2017-Oct-27 18:30N 37°42' W 012°15'611.2
2017-Oct-27 18:00N 37°47' W 012°14'711.0
2017-Oct-27 17:23N 37°54' W 012°12'410.9
2017-Oct-27 17:00N 37°58' W 012°11'1511.3
2017-Oct-27 15:38N 38°13' W 012°06'311.3
2017-Oct-27 15:24N 38°15' W 012°05'512.3
2017-Oct-27 15:00N 38°20' W 012°03'612.9
2017-Oct-27 14:30N 38°26' W 012°02'1912.9
2017-Oct-27 13:01N 38°45' W 011°56'012.6
2017-Oct-27 13:00N 38°45' W 011°56'2111.7
2017-Oct-27 11:09N 39°06' W 011°50'211.6
2017-Oct-27 10:58N 39°08' W 011°49'1911.3
2017-Oct-27 09:18N 39°27' W 011°43'311.1
2017-Oct-27 09:00N 39°30' W 011°42'611.1
2017-Oct-27 08:30N 39°35' W 011°40'611.3
2017-Oct-27 08:00N 39°41' W 011°39'33910.8
2017-Oct-26 00:43N 45°03' W 009°16'210.4
2017-Oct-26 00:29N 45°05' W 009°14'810.5
2017-Oct-25 23:42N 45°12' W 009°08'1410.4
2017-Oct-25 22:19N 45°25' W 008°58'510.7
2017-Oct-25 21:50N 45°29' W 008°53'310.7
2017-Oct-25 21:30N 45°32' W 008°51'1210.5
2017-Oct-25 20:21N 45°42' W 008°42'12810.4
2017-Oct-25 08:07N 47°31' W 007°04'23 9.8
2017-Oct-25 05:49N 47°50' W 006°47'10 9.1
2017-Oct-25 04:43N 47°59' W 006°39'3 9.2
2017-Oct-25 04:24N 48°01' W 006°37'5 9.3
2017-Oct-25 03:51N 48°06' W 006°33'6 9.6
2017-Oct-25 03:16N 48°10' W 006°28'3 9.8
2017-Oct-25 03:00N 48°13' W 006°26'510.0
2017-Oct-25 02:29N 48°17' W 006°22'510.3
2017-Oct-25 01:59N 48°21' W 006°18'510.3
2017-Oct-25 01:29N 48°26' W 006°14'510.7
2017-Oct-25 01:00N 48°30' W 006°10'611.0
2017-Oct-25 00:30N 48°35' W 006°06'611.1
2017-Oct-25 00:00N 48°40' W 006°02'511.1
2017-Oct-24 23:30N 48°44' W 005°57'711.1
2017-Oct-24 22:55N 48°50' W 005°52'410.5
2017-Oct-24 22:30N 48°54' W 005°49'5 9.5
2017-Oct-24 21:59N 48°56' W 005°42'5 9.2
2017-Oct-24 21:29N 48°59' W 005°36'4 9.1
2017-Oct-24 21:01N 49°01' W 005°30'5 8.7
2017-Oct-24 20:30N 49°03' W 005°25'4 8.5
2017-Oct-24 20:00N 49°05' W 005°19'4 8.3
2017-Oct-24 19:30N 49°07' W 005°14'4 7.9
2017-Oct-24 19:00N 49°09' W 005°08'5 7.9
2017-Oct-24 18:26N 49°12' W 005°02'6 7.9
2017-Oct-24 17:40N 49°15' W 004°55'2 8.1
2017-Oct-24 17:23N 49°16' W 004°52'3 8.2
2017-Oct-24 16:58N 49°18' W 004°47'48 9.7
2017-Oct-24 12:04N 49°42' W 003°44'12 9.1
2017-Oct-24 10:47N 49°48' W 003°29'3 8.3
2017-Oct-24 10:28N 49°49' W 003°25'4 7.9
2017-Oct-24 10:00N 49°51' W 003°20'4 7.8
2017-Oct-24 09:30N 49°53' W 003°15'8 7.2
2017-Oct-24 08:20N 49°57' W 003°03'4 7.8
2017-Oct-24 07:47N 49°59' W 002°58'4 7.9
2017-Oct-24 07:17N 50°00' W 002°52'9310.4
2017-Oct-23 22:22N 50°26' W 000°33'3 7.9
2017-Oct-23 21:58N 50°27' W 000°28'4 8.4
2017-Oct-23 21:30N 50°28' W 000°22'5 9.0
2017-Oct-23 20:58N 50°29' W 000°15'4 9.5
2017-Oct-23 20:30N 50°30' W 000°08'510.0
2017-Oct-23 20:00N 50°32' W 000°00'510.7
2017-Oct-23 19:30N 50°33' E 000°08'611.2
2017-Oct-23 18:56N 50°35' E 000°17'711.6
2017-Oct-23 18:21N 50°37' E 000°27'411.6
2017-Oct-23 18:00N 50°38' E 000°34'611.3
2017-Oct-23 17:30N 50°41' E 000°41'611.1
2017-Oct-23 17:00N 50°44' E 000°48'510.5
2017-Oct-23 16:30N 50°47' E 000°55'510.0
2017-Oct-23 16:00N 50°51' E 001°01'5 9.6
2017-Oct-23 15:30N 50°54' E 001°07'5 8.9
2017-Oct-23 14:58N 50°57' E 001°13'4 8.1
2017-Oct-23 14:29N 50°59' E 001°18'4 7.6
2017-Oct-23 14:00N 51°02' E 001°22'4 7.5
2017-Oct-23 13:30N 51°04' E 001°27'4 8.2
2017-Oct-23 13:00N 51°07' E 001°32'4 9.0
2017-Oct-23 12:30N 51°09' E 001°37'5 9.9
2017-Oct-23 12:00N 51°13' E 001°43'611.0
2017-Oct-23 11:30N 51°17' E 001°49'612.1
2017-Oct-23 11:00N 51°22' E 001°53'612.9
2017-Oct-23 10:30N 51°28' E 001°59'612.9
2017-Oct-23 10:00N 51°33' E 002°04'712.9
2017-Oct-23 09:29N 51°38' E 002°11'332 9.0
2017-Oct-21 20:24N 56°20' E 007°11'4 9.5
2017-Oct-21 20:00N 56°23' E 007°15'5 9.3
2017-Oct-21 19:29N 56°27' E 007°20'5 9.0
2017-Oct-21 18:59N 56°31' E 007°25'12510.0
2017-Oct-21 06:31N 57°49' E 010°24'113.0
2017-Oct-21 06:27N 57°49' E 010°26'613.0
2017-Oct-21 06:00N 57°49' E 010°37'611.7
2017-Oct-21 05:30N 57°47' E 010°47'612.0
2017-Oct-21 05:00N 57°43' E 010°56'611.4
2017-Oct-21 04:30N 57°39' E 011°03'611.5
2017-Oct-21 03:59N 57°35' E 011°12'611.8
2017-Oct-21 03:29N 57°31' E 011°20'611.7
2017-Oct-21 03:00N 57°27' E 011°26'612.0
2017-Oct-21 02:30N 57°21' E 011°30'612.4
2017-Oct-21 02:00N 57°15' E 011°34'612.4
2017-Oct-21 01:30N 57°10' E 011°38'612.3
2017-Oct-21 01:00N 57°04' E 011°42'  
Track history (hours):
 
Tides and Currents Weather Stations Pressure Air Temp Water Temp Dewpoint Dewpoint Depression Visibility Wind Speed Wind Dir Waves Ship Positions

Rainbow Quest

Last reported at 2017-Oct-30 19:56 UTC. Time now 2017-Dec-12 12:23 UTC.
Position N 25°03' W 017°36'.
Warning: this ship's position is 42 days out of date.

Length 180 m; draft 10.5 m.

Type: Cargo ship. MMSI: 236111696.

Date/timePositionNaut miles runAvg speedWind from/ knotsBaromVisibWave heightAir tempDewpointWater temp
2017-Oct-30 19:56N 25°03' W 017°36'20112.1
2017-Oct-30 03:20N 27°38' W 015°13'412.7
2017-Oct-30 03:00N 27°42' W 015°12'612.6
2017-Oct-30 02:30N 27°48' W 015°09'612.4
2017-Oct-30 02:00N 27°54' W 015°07'612.3
2017-Oct-30 01:30N 27°60' W 015°05'4 9.1
2017-Oct-30 01:00N 28°04' W 015°06'510.8
2017-Oct-30 00:30N 28°05' W 015°12'511.0
2017-Oct-30 00:00N 28°06' W 015°18'2 4.2
2017-Oct-29 23:30N 28°07' W 015°20'3 5.2
2017-Oct-29 23:00N 28°08' W 015°17'3 6.9
2017-Oct-29 22:30N 28°09' W 015°13'5 9.5
2017-Oct-29 22:00N 28°10' W 015°08'511.0
2017-Oct-29 21:30N 28°11' W 015°02'5 9.9
2017-Oct-29 21:00N 28°14' W 014°58'611.2
2017-Oct-29 20:30N 28°20' W 014°55'611.7
2017-Oct-29 20:00N 28°25' W 014°54'611.9
2017-Oct-29 19:30N 28°31' W 014°52'611.8
2017-Oct-29 18:58N 28°37' W 014°51'511.8
2017-Oct-29 18:30N 28°42' W 014°49'611.8
2017-Oct-29 18:00N 28°48' W 014°48'612.0
2017-Oct-29 17:30N 28°54' W 014°46'612.1
2017-Oct-29 17:00N 28°60' W 014°44'612.2
2017-Oct-29 16:30N 29°06' W 014°43'612.1
2017-Oct-29 16:00N 29°12' W 014°41'611.9
2017-Oct-29 15:30N 29°17' W 014°40'611.4
2017-Oct-29 14:58N 29°23' W 014°38'511.4
2017-Oct-29 14:30N 29°29' W 014°36'611.4
2017-Oct-29 14:00N 29°34' W 014°35'611.4
2017-Oct-29 13:30N 29°40' W 014°33'711.4
2017-Oct-29 12:56N 29°46' W 014°32'611.3
2017-Oct-29 12:26N 29°52' W 014°30'511.2
2017-Oct-29 12:00N 29°56' W 014°29'611.0
2017-Oct-29 11:30N 30°02' W 014°27'1311.0
2017-Oct-29 10:17N 30°15' W 014°24'410.9
2017-Oct-29 09:54N 30°19' W 014°23'511.0
2017-Oct-29 09:26N 30°24' W 014°21'511.2
2017-Oct-29 08:59N 30°29' W 014°20'611.1
2017-Oct-29 08:26N 30°35' W 014°18'811.5
2017-Oct-29 07:43N 30°43' W 014°16'611.6
2017-Oct-29 07:10N 30°49' W 014°15'1611.6
2017-Oct-29 05:46N 31°05' W 014°10'311.5
2017-Oct-29 05:30N 31°08' W 014°09'711.5
2017-Oct-29 04:55N 31°14' W 014°07'511.5
2017-Oct-29 04:30N 31°19' W 014°06'21111.7
2017-Oct-28 10:26N 34°44' W 013°08'1311.6
2017-Oct-28 09:19N 34°57' W 013°04'2311.8
2017-Oct-28 07:20N 35°19' W 012°57'511.6
2017-Oct-28 06:55N 35°24' W 012°56'511.5
2017-Oct-28 06:30N 35°29' W 012°55'611.5
2017-Oct-28 06:00N 35°34' W 012°53'811.5
2017-Oct-28 05:17N 35°42' W 012°51'311.6
2017-Oct-28 05:00N 35°45' W 012°50'10511.3
2017-Oct-27 19:48N 37°27' W 012°20'311.4
2017-Oct-27 19:30N 37°30' W 012°19'611.5
2017-Oct-27 19:00N 37°36' W 012°17'611.4
2017-Oct-27 18:30N 37°42' W 012°15'611.2
2017-Oct-27 18:00N 37°47' W 012°14'711.0
2017-Oct-27 17:23N 37°54' W 012°12'410.9
2017-Oct-27 17:00N 37°58' W 012°11'1511.3
2017-Oct-27 15:38N 38°13' W 012°06'311.3
2017-Oct-27 15:24N 38°15' W 012°05'512.3
2017-Oct-27 15:00N 38°20' W 012°03'612.9
2017-Oct-27 14:30N 38°26' W 012°02'1912.9
2017-Oct-27 13:01N 38°45' W 011°56'012.6
2017-Oct-27 13:00N 38°45' W 011°56'2111.7
2017-Oct-27 11:09N 39°06' W 011°50'211.6
2017-Oct-27 10:58N 39°08' W 011°49'1911.3
2017-Oct-27 09:18N 39°27' W 011°43'311.1
2017-Oct-27 09:00N 39°30' W 011°42'611.1
2017-Oct-27 08:30N 39°35' W 011°40'611.3
2017-Oct-27 08:00N 39°41' W 011°39'33910.8
2017-Oct-26 00:43N 45°03' W 009°16'210.4
2017-Oct-26 00:29N 45°05' W 009°14'810.5
2017-Oct-25 23:42N 45°12' W 009°08'1410.4
2017-Oct-25 22:19N 45°25' W 008°58'510.7
2017-Oct-25 21:50N 45°29' W 008°53'310.7
2017-Oct-25 21:30N 45°32' W 008°51'1210.5
2017-Oct-25 20:21N 45°42' W 008°42'12810.4
2017-Oct-25 08:07N 47°31' W 007°04'23 9.8
2017-Oct-25 05:49N 47°50' W 006°47'10 9.1
2017-Oct-25 04:43N 47°59' W 006°39'3 9.2
2017-Oct-25 04:24N 48°01' W 006°37'5 9.3
2017-Oct-25 03:51N 48°06' W 006°33'6 9.6
2017-Oct-25 03:16N 48°10' W 006°28'3 9.8
2017-Oct-25 03:00N 48°13' W 006°26'510.0
2017-Oct-25 02:29N 48°17' W 006°22'510.3
2017-Oct-25 01:59N 48°21' W 006°18'510.3
2017-Oct-25 01:29N 48°26' W 006°14'510.7
2017-Oct-25 01:00N 48°30' W 006°10'611.0
2017-Oct-25 00:30N 48°35' W 006°06'611.1
2017-Oct-25 00:00N 48°40' W 006°02'511.1
2017-Oct-24 23:30N 48°44' W 005°57'711.1
2017-Oct-24 22:55N 48°50' W 005°52'410.5
2017-Oct-24 22:30N 48°54' W 005°49'5 9.5
2017-Oct-24 21:59N 48°56' W 005°42'5 9.2
2017-Oct-24 21:29N 48°59' W 005°36'4 9.1
2017-Oct-24 21:01N 49°01' W 005°30'5 8.7
2017-Oct-24 20:30N 49°03' W 005°25'4 8.5
2017-Oct-24 20:00N 49°05' W 005°19'4 8.3
2017-Oct-24 19:30N 49°07' W 005°14'4 7.9
2017-Oct-24 19:00N 49°09' W 005°08'5 7.9
2017-Oct-24 18:26N 49°12' W 005°02'6 7.9
2017-Oct-24 17:40N 49°15' W 004°55'2 8.1
2017-Oct-24 17:23N 49°16' W 004°52'3 8.2
2017-Oct-24 16:58N 49°18' W 004°47'48 9.7
2017-Oct-24 12:04N 49°42' W 003°44'12 9.1
2017-Oct-24 10:47N 49°48' W 003°29'3 8.3
2017-Oct-24 10:28N 49°49' W 003°25'4 7.9
2017-Oct-24 10:00N 49°51' W 003°20'4 7.8
2017-Oct-24 09:30N 49°53' W 003°15'8 7.2
2017-Oct-24 08:20N 49°57' W 003°03'4 7.8
2017-Oct-24 07:47N 49°59' W 002°58'4 7.9
2017-Oct-24 07:17N 50°00' W 002°52'9310.4
2017-Oct-23 22:22N 50°26' W 000°33'3 7.9
2017-Oct-23 21:58N 50°27' W 000°28'4 8.4
2017-Oct-23 21:30N 50°28' W 000°22'5 9.0
2017-Oct-23 20:58N 50°29' W 000°15'4 9.5
2017-Oct-23 20:30N 50°30' W 000°08'510.0
2017-Oct-23 20:00N 50°32' W 000°00'510.7
2017-Oct-23 19:30N 50°33' E 000°08'611.2
2017-Oct-23 18:56N 50°35' E 000°17'711.6
2017-Oct-23 18:21N 50°37' E 000°27'411.6
2017-Oct-23 18:00N 50°38' E 000°34'611.3
2017-Oct-23 17:30N 50°41' E 000°41'611.1
2017-Oct-23 17:00N 50°44' E 000°48'510.5
2017-Oct-23 16:30N 50°47' E 000°55'510.0
2017-Oct-23 16:00N 50°51' E 001°01'5 9.6
2017-Oct-23 15:30N 50°54' E 001°07'5 8.9
2017-Oct-23 14:58N 50°57' E 001°13'4 8.1
2017-Oct-23 14:29N 50°59' E 001°18'4 7.6
2017-Oct-23 14:00N 51°02' E 001°22'4 7.5
2017-Oct-23 13:30N 51°04' E 001°27'4 8.2
2017-Oct-23 13:00N 51°07' E 001°32'4 9.0
2017-Oct-23 12:30N 51°09' E 001°37'5 9.9
2017-Oct-23 12:00N 51°13' E 001°43'611.0
2017-Oct-23 11:30N 51°17' E 001°49'612.1
2017-Oct-23 11:00N 51°22' E 001°53'612.9
2017-Oct-23 10:30N 51°28' E 001°59'612.9
2017-Oct-23 10:00N 51°33' E 002°04'712.9
2017-Oct-23 09:29N 51°38' E 002°11'332 9.0
2017-Oct-21 20:24N 56°20' E 007°11'4 9.5
2017-Oct-21 20:00N 56°23' E 007°15'5 9.3
2017-Oct-21 19:29N 56°27' E 007°20'5 9.0
2017-Oct-21 18:59N 56°31' E 007°25'12510.0
2017-Oct-21 06:31N 57°49' E 010°24'113.0
2017-Oct-21 06:27N 57°49' E 010°26'613.0
2017-Oct-21 06:00N 57°49' E 010°37'611.7
2017-Oct-21 05:30N 57°47' E 010°47'612.0
2017-Oct-21 05:00N 57°43' E 010°56'611.4
2017-Oct-21 04:30N 57°39' E 011°03'611.5
2017-Oct-21 03:59N 57°35' E 011°12'611.8
2017-Oct-21 03:29N 57°31' E 011°20'611.7
2017-Oct-21 03:00N 57°27' E 011°26'612.0
2017-Oct-21 02:30N 57°21' E 011°30'612.4
2017-Oct-21 02:00N 57°15' E 011°34'612.4
2017-Oct-21 01:30N 57°10' E 011°38'612.3
2017-Oct-21 01:00N 57°04' E 011°42'  

Dump ship's entire track history